Sayansk, Russia
Current Conditions -  °F | °C
As of 3:30 PM on Wednesday 26 Nov 2014 (Local Time) from UIBB Reporting Station
Broken Clouds Broken Clouds  
Wind Chill: -10°   Ceiling: 20000
Heat Index:   Visibility: 6mi
Dew Point: -11°   Wind: 4mph
Humidity: 60%   Direction: 200°SSW
Pressure: 29.8"   Gusts: NA
Location:  53.99°N, 102.1°E
Report Text: UIBB 260730Z 20002MPS 9999 BKN200 M18/M24 Q1009 NOSIG RMKQFE714/0952 30490237
Loading
Personal Weather Stations






























Interactive Weather Map New forecast layout! Learn more

10-Day Weather Forecast

Advertisements
Track Severe Weather on mobile